Latest Coastal Weather Observations for Parndana

IDS60701

Issued at 9:25 pm CST Friday 19 September 2014 (issued every 10 minutes, with the page automatically refreshed every 10 minutes)

About coastal observations | Map of coastal stations | Coastal observations for SA | Marine services | Other Formats
Station Details ID: 022843 Name: PARNDANA CFS AWS Lat: -35.79 Lon: 137.25 Height: 165.0 m
Data from the previous 72 hours. | See also: Recent months at Parndana
Date/Time
CST
Temp

°C
Wind Pressure Rain
since 9am
mm
Weather Cloud Vis
km
Sea
Height
m
Swell
Dir
 
Speed
knots
Gust
knots
hPa Trend Height
m
Period
s
Dir
19/09:00pm 8.4 E 7 8 - - 0.0 - - - - - - -
19/08:30pm 8.3 E 7 9 - - 0.0 - - - - - - -
19/08:00pm 8.5 E 7 10 - - 0.0 - - - - - - -
19/07:30pm 8.9 E 8 10 - - 0.0 - - - - - - -
19/07:00pm 8.1 ESE 7 8 - - 0.0 - - - - - - -
19/06:30pm 8.4 ESE 7 8 - - 0.0 - - - - - - -
19/06:00pm 10.6 E 6 7 - - 0.0 - - - - - - -
19/05:30pm 13.1 E 7 9 - - 0.0 - - - - - - -
19/05:00pm 13.9 ENE 7 9 - - 0.0 - - - - - - -
19/04:30pm 14.4 ENE 7 10 - - 0.0 - - - - - - -
19/04:00pm 14.7 ENE 8 12 - - 0.0 - - - - - - -
19/03:30pm 14.7 NE 7 12 - - 0.0 - - - - - - -
19/03:00pm 14.7 NE 9 13 - - 0.0 - - - - - - -
19/02:30pm 15.1 ENE 7 12 - - 0.0 - - - - - - -
19/02:00pm 14.9 ENE 8 11 - - 0.0 - - - - - - -
19/01:30pm 14.7 NE 7 10 - - 0.0 - - - - - - -
19/01:00pm 14.3 NE 9 11 - - 0.0 - - - - - - -
19/12:30pm 14.4 NE 8 13 - - 0.0 - - - - - - -
19/12:00pm 14.2 NE 8 12 - - 0.0 - - - - - - -
19/11:30am 13.9 ENE 9 12 - - 0.0 - - - - - - -
19/11:00am 13.8 E 9 16 - - 0.0 - - - - - - -
19/10:30am 13.1 NE 8 12 - - 0.0 - - - - - - -
19/10:00am 12.4 ENE 10 13 - - 0.0 - - - - - - -
19/09:30am 12.1 ENE 9 13 - - 0.0 - - - - - - -
19/09:00am 11.6 ENE 10 13 - - 0.0 - - - - - - -
19/08:30am 11.2 ENE 10 13 - - 0.0 - - - - - - -
19/08:00am 10.1 ENE 7 9 - - 0.0 - - - - - - -
19/07:30am 8.2 ENE 5 7 - - 0.0 - - - - - - -
19/07:00am 6.5 E 4 6 - - 0.0 - - - - - - -
19/06:30am 5.3 E 5 5 - - 0.0 - - - - - - -
19/06:00am 4.9 E 4 6 - - 0.0 - - - - - - -
19/05:30am 4.3 E 3 4 - - 0.0 - - - - - - -
19/05:00am 4.6 E 3 3 - - 0.0 - - - - - - -
19/04:30am 4.1 E 2 3 - - 0.0 - - - - - - -
19/04:00am 5.4 E 3 4 - - 0.0 - - - - - - -
19/03:30am 6.0 ESE 3 4 - - 0.0 - - - - - - -
19/03:00am 5.7 SE 3 4 - - 0.0 - - - - - - -
19/02:30am 5.6 SE 3 4 - - 0.0 - - - - - - -
19/02:00am 5.9 SE 3 4 - - 0.0 - - - - - - -
19/01:30am 6.0 SE 3 4 - - 0.0 - - - - - - -
19/01:00am 5.6 SE 2 3 - - 0.0 - - - - - - -
19/12:30am 5.3 SE 1 2 - - 0.0 - - - - - - -
19/12:00am 4.6 SE 2 2 - - 0.0 - - - - - - -
 
Date/Time
CST
Temp

°C
Wind Pressure Rain
since 9am
mm
Weather Cloud Vis
km
Sea
Height
m
Swell
Dir
 
Speed
knots
Gust
knots
hPa Trend Height
m
Period
s
Dir
18/11:30pm 5.5 SSE 4 4 - - 0.0 - - - - - - -
18/11:00pm 5.5 SE 4 4 - - 0.0 - - - - - - -
18/10:30pm 5.4 S 3 4 - - 0.0 - - - - - - -
18/10:00pm 4.6 SSE 5 6 - - 0.0 - - - - - - -
18/09:30pm 6.1 ESE 5 5 - - 0.0 - - - - - - -
18/09:00pm 7.6 ESE 3 4 - - 0.0 - - - - - - -
18/08:30pm 7.8 ESE 4 4 - - 0.0 - - - - - - -
18/08:00pm 7.8 ESE 3 4 - - 0.0 - - - - - - -
18/07:30pm 8.4 ESE 4 4 - - 0.0 - - - - - - -
18/07:00pm 9.2 SE 4 5 - - 0.0 - - - - - - -
18/06:30pm 10.0 SE 6 9 - - 0.0 - - - - - - -
18/06:00pm 10.6 SE 7 10 - - 0.0 - - - - - - -
18/05:30pm 11.3 SSE 7 9 - - 0.0 - - - - - - -
18/05:00pm 11.4 S 8 10 - - 0.0 - - - - - - -
18/04:30pm 11.7 SSE 8 11 - - 0.0 - - - - - - -
18/04:00pm 12.1 S 9 12 - - 0.0 - - - - - - -
18/03:30pm 13.1 S 9 12 - - 0.0 - - - - - - -
18/03:00pm 13.4 SSE 10 13 - - 0.0 - - - - - - -
18/02:30pm 13.3 S 11 15 - - 0.0 - - - - - - -
18/02:00pm 14.3 SSE 9 13 - - 0.0 - - - - - - -
18/01:30pm 12.8 S 13 15 - - 0.0 - - - - - - -
18/01:00pm 13.5 SSE 9 13 - - 0.0 - - - - - - -
18/12:30pm 12.3 SSE 6 11 - - 0.0 - - - - - - -
18/12:00pm 12.4 ESE 6 9 - - 0.0 - - - - - - -
18/11:30am 11.1 S 9 13 - - 0.0 - - - - - - -
18/11:00am 11.8 SSE 9 11 - - 0.0 - - - - - - -
18/10:30am 11.1 S 9 13 - - 0.0 - - - - - - -
18/10:00am 12.7 S 4 7 - - 0.0 - - - - - - -
18/09:30am 12.0 E 1 2 - - 0.0 - - - - - - -
18/09:00am 10.4 NNW 2 3 - - 0.6 - - - - - - -
18/08:30am 9.8 N 1 2 - - 0.6 - - - - - - -
18/08:00am 9.1 NW 2 4 - - 0.6 - - - - - - -
18/07:30am 8.3 SW 7 10 - - 0.6 - - - - - - -
18/07:00am 8.0 SW 5 6 - - 0.6 - - - - - - -
18/06:30am 7.6 WSW 5 7 - - 0.6 - - - - - - -
18/06:00am 7.3 WSW 2 3 - - 0.6 - - - - - - -
18/05:30am 7.8 CALM 0 1 - - 0.6 - - - - - - -
18/05:00am 8.0 SE 2 3 - - 0.6 - - - - - - -
18/04:30am 7.7 S 2 3 - - 0.6 - - - - - - -
18/04:00am 7.6 S 5 7 - - 0.6 - - - - - - -
18/03:30am 7.9 SW 6 7 - - 0.4 - - - - - - -
18/03:00am 7.8 WSW 5 7 - - 0.2 - - - - - - -
18/02:30am 7.7 W 5 6 - - 0.2 - - - - - - -
18/02:00am 7.8 W 4 5 - - 0.2 - - - - - - -
18/01:30am 7.7 W 4 5 - - 0.2 - - - - - - -
18/01:00am 7.9 WSW 6 9 - - 0.2 - - - - - - -
18/12:30am 8.0 W 6 9 - - 0.2 - - - - - - -
18/12:00am 7.4 W 5 5 - - 0.2 - - - - - - -
 
Date/Time
CST
Temp

°C
Wind Pressure Rain
since 9am
mm
Weather Cloud Vis
km
Sea
Height
m
Swell
Dir
 
Speed
knots
Gust
knots
hPa Trend Height
m
Period
s
Dir
17/11:30pm 8.0 W 4 6 - - 0.2 - - - - - - -
17/11:00pm 7.2 W 5 6 - - 0.2 - - - - - - -
17/10:30pm 7.5 W 4 4 - - 0.2 - - - - - - -
17/10:00pm 7.3 W 4 5 - - 0.2 - - - - - - -
17/09:30pm 7.6 WNW 4 4 - - 0.2 - - - - - - -
17/09:00pm 7.4 NW 3 4 - - 0.2 - - - - - - -
17/08:30pm 7.2 WSW 4 5 - - 0.2 - - - - - - -
17/08:00pm 8.1 SW 7 10 - - 0.2 - - - - - - -
17/07:30pm 7.1 SW 4 5 - - 0.2 - - - - - - -
17/07:00pm 7.7 SW 4 5 - - 0.2 - - - - - - -
17/06:30pm 8.2 SSW 3 4 - - 0.2 - - - - - - -
17/06:00pm 8.5 SSW 6 8 - - 0.2 - - - - - - -
17/05:30pm 10.7 S 6 9 - - 0.2 - - - - - - -
17/05:00pm 10.9 SSW 9 12 - - 0.2 - - - - - - -
17/04:30pm 11.8 S 7 9 - - 0.2 - - - - - - -
17/04:00pm 12.0 S 8 12 - - 0.2 - - - - - - -
17/03:30pm 11.8 SSW 10 13 - - 0.2 - - - - - - -
17/03:00pm 11.7 S 9 12 - - 0.2 - - - - - - -
17/02:30pm 11.9 S 10 15 - - 0.2 - - - - - - -
17/02:00pm 11.9 S 11 16 - - 0.2 - - - - - - -
17/01:30pm 12.1 S 10 14 - - 0.2 - - - - - - -
17/01:00pm 12.5 S 10 15 - - 0.2 - - - - - - -
17/12:30pm 13.2 SSW 11 15 - - 0.0 - - - - - - -
17/12:00pm 12.2 SSW 13 18 - - 0.0 - - - - - - -
17/11:30am 12.0 SSW 11 15 - - 0.0 - - - - - - -
17/11:00am 12.5 SSW 11 16 - - 0.0 - - - - - - -
17/10:30am 12.7 SW 11 16 - - 0.0 - - - - - - -
17/10:00am 12.0 SSW 12 17 - - 0.0 - - - - - - -
17/09:30am 11.6 SSW 11 16 - - 0.0 - - - - - - -
17/09:00am 11.7 SSW 11 15 - - 0.8 - - - - - - -
17/08:30am 11.0 SSW 9 14 - - 0.8 - - - - - - -
17/08:00am 9.9 SSW 10 14 - - 0.8 - - - - - - -
17/07:30am 9.0 SW 6 8 - - 0.8 - - - - - - -
17/07:00am 8.6 SW 8 10 - - 0.8 - - - - - - -
17/06:30am 7.8 WSW 7 10 - - 0.8 - - - - - - -
17/06:00am 8.2 SW 9 14 - - 0.8 Rain - - - - - -
17/05:30am 6.6 SW 6 6 - - 0.6 - - - - - - -
17/05:00am 7.2 WSW 6 7 - - 0.6 - - - - - - -
17/04:30am 7.8 WSW 7 9 - - 0.6 - - - - - - -
17/04:00am 6.1 W 5 7 - - 0.6 - - - - - - -
17/03:30am 6.3 W 6 6 - - 0.6 - - - - - - -
17/03:00am 7.8 WSW 7 9 - - 0.6 Recent precip. - - - - - -
17/02:30am 7.9 SW 7 9 - - 0.4 - - - - - - -
17/02:00am 7.0 W 7 8 - - 0.4 - - - - - - -
17/01:30am 7.7 W 7 9 - - 0.4 - - - - - - -
17/01:00am 8.3 W 8 11 - - 0.4 - - - - - - -
17/12:30am 8.8 W 9 12 - - 0.2 - - - - - - -
17/12:00am 8.5 W 8 10 - - 0.2 Recent precip. - - - - - -
 
Date/Time
CST
Temp

°C
Wind Pressure Rain
since 9am
mm
Weather Cloud Vis
km
Sea
Height
m
Swell
Dir
 
Speed
knots
Gust
knots
hPa Trend Height
m
Period
s
Dir
16/11:30pm 8.2 W 8 10 - - 0.0 - - - - - - -
16/11:00pm 6.9 W 8 9 - - 0.0 - - - - - - -
16/10:30pm 7.2 WNW 8 9 - - 0.0 - - - - - - -
16/10:00pm 6.3 WNW 5 6 - - 0.0 - - - - - - -
16/09:30pm 7.8 WNW 6 7 - - 0.0 - - - - - - -

Other Formats:

Comma delimited format used in spreadsheet applications
http://www.bom.gov.au/fwo/IDS60701/IDS60701.94807.axf

JavaScript Object Notation format (JSON) in row-major order
http://www.bom.gov.au/fwo/IDS60701/IDS60701.94807.json